createdAt,value
2022-11-20T00:00:09.799Z,-0.82
2022-11-20T00:02:36.277Z,-0.90
2022-11-20T00:05:02.781Z,-0.90
2022-11-20T00:07:31.393Z,-0.92
2022-11-20T00:09:57.912Z,-0.97
2022-11-20T00:12:24.363Z,-0.82
2022-11-20T00:14:50.763Z,-0.82
2022-11-20T00:17:17.170Z,-0.89
2022-11-20T00:19:43.630Z,-0.93
2022-11-20T00:22:10.730Z,-0.95
2022-11-20T00:24:42.725Z,-0.86
2022-11-20T00:27:09.497Z,-0.83
2022-11-20T00:29:36.629Z,-0.93
2022-11-20T00:32:04.681Z,-0.94
2022-11-20T00:34:31.286Z,-0.93
2022-11-20T00:36:57.687Z,-0.88
2022-11-20T00:39:24.326Z,-0.84
2022-11-20T00:41:51.255Z,-0.90
2022-11-20T00:44:17.697Z,-0.89
2022-11-20T00:46:44.187Z,-0.91
2022-11-20T00:49:10.572Z,-0.89
2022-11-20T00:51:36.991Z,-0.81
2022-11-20T00:54:03.542Z,-0.93
2022-11-20T00:56:30.089Z,-0.93
2022-11-20T00:58:56.562Z,-0.94
2022-11-20T01:01:27.360Z,-0.90
2022-11-20T01:03:55.303Z,-0.80
2022-11-20T01:06:23.196Z,-0.89
2022-11-20T01:08:50.531Z,-0.90
2022-11-20T01:11:21.576Z,-0.91
2022-11-20T01:13:51.235Z,-0.92
2022-11-20T01:16:17.831Z,-0.82
2022-11-20T01:18:47.907Z,-0.85
2022-11-20T01:21:20.402Z,-0.90
2022-11-20T01:23:48.067Z,-0.95
2022-11-20T01:26:15.839Z,-0.92
2022-11-20T01:28:43.471Z,-0.84
2022-11-20T01:31:22.249Z,-0.87
2022-11-20T01:33:50.267Z,-0.91
2022-11-20T01:36:19.629Z,-0.93
2022-11-20T01:38:46.063Z,-0.92
2022-11-20T01:41:33.735Z,-0.82
2022-11-20T01:44:00.900Z,-0.83
2022-11-20T01:46:27.689Z,-0.84
2022-11-20T01:49:17.748Z,-0.87
2022-11-20T01:51:53.790Z,-0.86
2022-11-20T01:54:23.299Z,-0.72
2022-11-20T01:56:53.007Z,-0.75
2022-11-20T01:59:20.970Z,-0.81
2022-11-20T02:01:47.970Z,-0.81
2022-11-20T02:04:15.274Z,-0.82
2022-11-20T02:07:10.935Z,-0.74
2022-11-20T02:09:37.413Z,-0.71
2022-11-20T02:12:04.226Z,-0.81
2022-11-20T02:14:30.665Z,-0.82
2022-11-20T02:16:57.207Z,-0.82
2022-11-20T02:19:26.075Z,-0.72
2022-11-20T02:22:11.494Z,-0.67
2022-11-20T02:24:37.934Z,-0.77
2022-11-20T02:27:11.925Z,-0.80
2022-11-20T02:29:48.277Z,-0.85
2022-11-20T02:32:22.208Z,-0.77
2022-11-20T02:34:48.895Z,-0.76
2022-11-20T02:37:15.392Z,-0.81
2022-11-20T02:39:42.671Z,-0.83
2022-11-20T02:42:09.158Z,-0.81
2022-11-20T02:44:35.753Z,-0.79
2022-11-20T02:47:02.222Z,-0.65
2022-11-20T02:49:28.676Z,-0.76
2022-11-20T02:51:55.118Z,-0.78
2022-11-20T02:54:21.575Z,-0.80
2022-11-20T02:56:48.021Z,-0.79
2022-11-20T02:59:14.607Z,-0.69
2022-11-20T03:01:41.257Z,-0.72
2022-11-20T03:04:07.734Z,-0.80
2022-11-20T03:06:34.433Z,-0.80
2022-11-20T03:09:00.894Z,-0.82
2022-11-20T03:11:29.978Z,-0.74
2022-11-20T03:13:56.457Z,-0.71
2022-11-20T03:16:24.045Z,-0.77
2022-11-20T03:18:52.862Z,-0.85
2022-11-20T03:21:19.420Z,-0.87
2022-11-20T03:23:45.841Z,-0.75
2022-11-20T03:26:15.904Z,-0.73
2022-11-20T03:28:46.091Z,-0.81
2022-11-20T03:31:14.653Z,-0.91
2022-11-20T03:33:43.908Z,-0.89
2022-11-20T03:36:13.868Z,-0.81
2022-11-20T03:38:42.877Z,-0.79
2022-11-20T03:41:10.427Z,-0.86
2022-11-20T03:43:37.426Z,-0.90
2022-11-20T03:46:04.633Z,-0.93
2022-11-20T03:48:31.563Z,-0.90
2022-11-20T03:51:07.865Z,-0.83
2022-11-20T03:53:34.364Z,-0.91
2022-11-20T03:56:00.864Z,-0.91
2022-11-20T03:58:27.263Z,-0.92
2022-11-20T04:00:53.719Z,-0.92
2022-11-20T04:03:20.110Z,-0.79
2022-11-20T04:05:46.857Z,-0.84
2022-11-20T04:08:13.263Z,-0.91
2022-11-20T04:10:39.699Z,-0.95
2022-11-20T04:13:07.802Z,-0.94
2022-11-20T04:15:38.200Z,-0.87
2022-11-20T04:18:05.063Z,-0.85
2022-11-20T04:20:31.574Z,-0.88
2022-11-20T04:22:58.040Z,-0.90
2022-11-20T04:25:24.458Z,-0.95
2022-11-20T04:27:50.858Z,-0.93
2022-11-20T04:30:18.003Z,-0.78
2022-11-20T04:32:44.416Z,-0.81
2022-11-20T04:35:10.907Z,-0.82
2022-11-20T04:37:37.390Z,-0.84
2022-11-20T04:40:04.066Z,-0.79
2022-11-20T04:42:30.519Z,-0.67
2022-11-20T04:44:57.471Z,-0.72
2022-11-20T04:47:24.481Z,-0.78
2022-11-20T04:49:50.962Z,-0.82
2022-11-20T04:52:17.507Z,-0.80
2022-11-20T04:54:43.958Z,-0.74
2022-11-20T04:57:14.469Z,-0.71
2022-11-20T04:59:41.314Z,-0.76
2022-11-20T05:02:07.887Z,-0.79
2022-11-20T05:04:34.361Z,-0.82
2022-11-20T05:07:00.825Z,-0.80
2022-11-20T05:09:27.344Z,-0.70
2022-11-20T05:11:53.845Z,-0.79
2022-11-20T05:14:20.341Z,-0.78
2022-11-20T05:16:46.986Z,-0.82
2022-11-20T05:19:13.518Z,-0.79
2022-11-20T05:21:39.909Z,-0.63
2022-11-20T05:24:06.863Z,-0.71
2022-11-20T05:26:33.851Z,-0.74
2022-11-20T05:29:01.038Z,-0.77
2022-11-20T05:31:28.611Z,-0.79
2022-11-20T05:33:55.763Z,-0.76
2022-11-20T05:36:24.003Z,-0.68
2022-11-20T05:38:51.304Z,-0.70
2022-11-20T05:41:19.806Z,-0.78
2022-11-20T05:43:46.996Z,-0.84
2022-11-20T05:46:14.413Z,-0.79
2022-11-20T05:48:41.558Z,-0.66
2022-11-20T05:51:10.299Z,-0.77
2022-11-20T05:53:37.376Z,-0.75
2022-11-20T05:56:05.955Z,-0.79
2022-11-20T05:58:33.310Z,-0.80
2022-11-20T06:01:06.730Z,-0.66
2022-11-20T06:03:33.389Z,-0.72
2022-11-20T06:06:00.439Z,-0.76
2022-11-20T06:08:26.854Z,-0.75
2022-11-20T06:10:53.286Z,-0.77
2022-11-20T06:13:19.742Z,-0.70
2022-11-20T06:15:49.834Z,-0.71
2022-11-20T06:18:16.314Z,-0.79
2022-11-20T06:20:42.778Z,-0.81
2022-11-20T06:23:09.181Z,-0.83
2022-11-20T06:25:38.483Z,-0.70
2022-11-20T06:28:04.900Z,-0.70
2022-11-20T06:30:31.361Z,-0.81
2022-11-20T06:32:57.779Z,-0.84
2022-11-20T06:35:24.675Z,-0.85
2022-11-20T06:37:51.080Z,-0.76
2022-11-20T06:40:17.567Z,-0.73
2022-11-20T06:42:44.065Z,-0.80
2022-11-20T06:45:10.687Z,-0.84
2022-11-20T06:47:37.083Z,-0.84
2022-11-20T06:50:03.639Z,-0.73
2022-11-20T06:52:30.166Z,-0.72
2022-11-20T06:54:56.641Z,-0.81
2022-11-20T06:57:23.085Z,-0.83
2022-11-20T06:59:49.550Z,-0.84
2022-11-20T07:02:15.986Z,-0.86
2022-11-20T07:04:42.488Z,-0.74
2022-11-20T07:07:09.648Z,-0.77
2022-11-20T07:09:36.143Z,-0.85
2022-11-20T07:12:02.586Z,-0.83
2022-11-20T07:14:29.027Z,-0.83
2022-11-20T07:16:55.645Z,-0.78
2022-11-20T07:19:22.385Z,-0.70
2022-11-20T07:21:49.047Z,-0.79
2022-11-20T07:24:15.470Z,-0.85
2022-11-20T07:26:41.896Z,-0.95
2022-11-20T07:29:09.066Z,-0.98
2022-11-20T07:31:36.653Z,-0.92
2022-11-20T07:34:05.388Z,-0.92
2022-11-20T07:36:31.841Z,-1.02
2022-11-20T07:38:58.342Z,-1.06
2022-11-20T07:41:24.803Z,-1.11
2022-11-20T07:43:51.199Z,-1.15
2022-11-20T07:46:19.667Z,-1.07
2022-11-20T07:48:46.084Z,-1.01
2022-11-20T07:51:12.684Z,-1.17
2022-11-20T07:53:39.106Z,-1.22
2022-11-20T07:56:05.816Z,-1.21
2022-11-20T07:58:33.996Z,-1.28
2022-11-20T08:01:04.769Z,-1.34
2022-11-20T08:03:31.198Z,-1.22
2022-11-20T08:05:59.882Z,-1.25
2022-11-20T08:08:28.319Z,-1.35
2022-11-20T08:11:14.697Z,-1.33
2022-11-20T08:13:59.653Z,-1.33
2022-11-20T08:16:26.108Z,-1.27
2022-11-20T08:18:52.509Z,-1.25
2022-11-20T08:21:18.927Z,-1.34
2022-11-20T08:23:45.427Z,-1.34
2022-11-20T08:26:12.151Z,-1.33
2022-11-20T08:28:38.546Z,-1.38
2022-11-20T08:31:06.349Z,-1.28
2022-11-20T08:33:33.870Z,-1.33
2022-11-20T08:36:04.553Z,-1.39
2022-11-20T08:38:31.553Z,-1.42
2022-11-20T08:41:23.269Z,-1.42
2022-11-20T08:43:50.014Z,-1.39
2022-11-20T08:46:18.265Z,-1.29
2022-11-20T08:48:45.074Z,-1.26
2022-11-20T08:51:12.433Z,-1.27
2022-11-20T08:53:39.364Z,-1.31
2022-11-20T08:56:06.118Z,-1.32
2022-11-20T08:58:48.862Z,-1.29
2022-11-20T09:01:20.208Z,-1.19
2022-11-20T09:03:46.888Z,-1.27
2022-11-20T09:06:13.774Z,-1.29
2022-11-20T09:08:40.518Z,-1.24
2022-11-20T09:11:07.378Z,-1.25
2022-11-20T09:13:35.298Z,-1.09
2022-11-20T09:16:03.441Z,-1.19
2022-11-20T09:18:31.511Z,-1.20
2022-11-20T09:21:01.564Z,-1.21
2022-11-20T09:23:28.701Z,-1.22
2022-11-20T09:25:56.769Z,-1.11
2022-11-20T09:28:23.222Z,-1.12
2022-11-20T09:30:50.458Z,-1.17
2022-11-20T09:33:16.979Z,-1.18
2022-11-20T09:35:44.523Z,-1.25
2022-11-20T09:38:13.878Z,-1.21
2022-11-20T09:40:44.793Z,-1.14
2022-11-20T09:43:14.160Z,-1.04
2022-11-20T09:45:56.475Z,-1.06
2022-11-20T09:48:22.909Z,-1.05
2022-11-20T09:50:54.587Z,-1.02
2022-11-20T09:53:27.740Z,-1.07
2022-11-20T09:55:55.328Z,-0.91
2022-11-20T09:58:41.524Z,-0.90
2022-11-20T10:01:13.828Z,-0.90
2022-11-20T10:03:46.873Z,-0.96
2022-11-20T10:06:16.570Z,-0.94
2022-11-20T10:08:46.216Z,-0.87
2022-11-20T10:11:35.974Z,-0.78
2022-11-20T10:14:14.709Z,-0.79
2022-11-20T10:16:56.796Z,-0.82
2022-11-20T10:19:41.174Z,-0.80
2022-11-20T10:22:37.155Z,-0.75
2022-11-20T10:25:10.622Z,-0.61
2022-11-20T10:27:37.294Z,-0.67
2022-11-20T10:30:04.902Z,-0.65
2022-11-20T10:32:37.550Z,-0.67
2022-11-20T10:35:23.126Z,-0.67
2022-11-20T10:37:56.659Z,-0.57
2022-11-20T10:40:37.019Z,-0.54
2022-11-20T10:43:15.990Z,-0.56
2022-11-20T10:45:48.343Z,-0.59
2022-11-20T10:48:21.586Z,-0.64
2022-11-20T10:51:08.314Z,-0.58
2022-11-20T10:53:53.710Z,-0.51
2022-11-20T10:56:22.078Z,-0.59
2022-11-20T10:59:07.589Z,-0.54
2022-11-20T11:01:40.682Z,-0.54
2022-11-20T11:04:09.996Z,-0.52
2022-11-20T11:06:38.798Z,-0.40
2022-11-20T11:09:10.123Z,-0.42
2022-11-20T11:11:36.859Z,-0.41
2022-11-20T11:14:29.472Z,-0.43
2022-11-20T11:16:59.210Z,-0.46
2022-11-20T11:19:26.003Z,-0.41
2022-11-20T11:21:57.544Z,-0.44
2022-11-20T11:24:42.684Z,-0.48
2022-11-20T11:27:17.303Z,-0.48
2022-11-20T11:29:44.675Z,-0.49
2022-11-20T11:32:15.470Z,-0.51
2022-11-20T11:34:42.527Z,-0.47
2022-11-20T11:37:31.091Z,-0.36
2022-11-20T11:40:23.045Z,-0.43
2022-11-20T11:42:58.837Z,-0.49
2022-11-20T11:45:27.575Z,-0.49
2022-11-20T11:47:56.683Z,-0.51
2022-11-20T11:50:24.441Z,-0.54
2022-11-20T11:53:09.363Z,-0.49
2022-11-20T11:55:38.614Z,-0.39
2022-11-20T11:58:08.019Z,-0.44
2022-11-20T12:00:36.607Z,-0.51
2022-11-20T12:03:06.073Z,-0.49
2022-11-20T12:05:44.202Z,-0.50
2022-11-20T12:08:26.299Z,-0.44
2022-11-20T12:10:58.006Z,-0.43
2022-11-20T12:13:32.342Z,-0.46
2022-11-20T12:16:00.994Z,-0.41
2022-11-20T12:18:28.335Z,-0.38
2022-11-20T12:20:54.790Z,-0.43
2022-11-20T12:23:36.914Z,-0.49
2022-11-20T12:26:07.430Z,-0.42
2022-11-20T12:28:34.659Z,-0.38
2022-11-20T12:31:01.715Z,-0.50
2022-11-20T12:33:47.959Z,-0.43
2022-11-20T12:36:22.651Z,-0.43
2022-11-20T12:38:49.058Z,-0.54
2022-11-20T12:41:52.522Z,-0.51
2022-11-20T12:44:40.666Z,-0.46
2022-11-20T12:47:19.823Z,-0.57
2022-11-20T12:49:49.212Z,-0.49
2022-11-20T12:52:30.303Z,-0.45
2022-11-20T12:55:15.541Z,-0.53
2022-11-20T12:57:41.969Z,-0.51
2022-11-20T13:00:11.889Z,-0.50
2022-11-20T13:02:47.738Z,-0.56
2022-11-20T13:05:23.469Z,-0.54
2022-11-20T13:07:51.569Z,-0.44
2022-11-20T13:10:22.567Z,-0.50
2022-11-20T13:12:54.434Z,-0.56
2022-11-20T13:15:32.860Z,-0.49
2022-11-20T13:18:00.587Z,-0.48
2022-11-20T13:20:27.102Z,-0.55
2022-11-20T13:22:55.776Z,-0.49
2022-11-20T13:25:25.991Z,-0.44
2022-11-20T13:27:53.058Z,-0.50
2022-11-20T13:30:22.049Z,-0.56
2022-11-20T13:33:08.736Z,-0.46
2022-11-20T13:35:36.794Z,-0.47
2022-11-20T13:38:05.394Z,-0.55
2022-11-20T13:40:33.989Z,-0.49
2022-11-20T13:43:19.039Z,-0.41
2022-11-20T13:45:57.140Z,-0.51
2022-11-20T13:48:25.125Z,-0.57
2022-11-20T13:51:05.775Z,-0.49
2022-11-20T13:53:51.002Z,-0.53
2022-11-20T13:56:25.688Z,-0.53
2022-11-20T13:59:14.731Z,-0.44
2022-11-20T14:01:43.182Z,-0.40
2022-11-20T14:04:10.432Z,-0.45
2022-11-20T14:06:42.503Z,-0.43
2022-11-20T14:09:13.866Z,-0.33
2022-11-20T14:11:47.204Z,-0.39
2022-11-20T14:14:18.694Z,-0.42
2022-11-20T14:16:45.568Z,-0.35
2022-11-20T14:19:23.405Z,-0.30
2022-11-20T14:21:52.272Z,-0.40
2022-11-20T14:24:23.395Z,-0.40
2022-11-20T14:26:50.707Z,-0.33
2022-11-20T14:29:19.441Z,-0.38
2022-11-20T14:31:51.180Z,-0.38
2022-11-20T14:34:23.509Z,-0.34
2022-11-20T14:36:53.387Z,-0.27
2022-11-20T14:39:23.601Z,-0.31
2022-11-20T14:41:53.605Z,-0.36
2022-11-20T14:44:26.789Z,-0.33
2022-11-20T14:46:53.733Z,-0.33
2022-11-20T14:49:20.734Z,-0.33
2022-11-20T14:51:47.657Z,-0.35
2022-11-20T14:54:23.460Z,-0.30
2022-11-20T14:57:00.237Z,-0.26
2022-11-20T14:59:27.689Z,-0.27
2022-11-20T15:01:59.018Z,-0.37
2022-11-20T15:04:25.988Z,-0.39
2022-11-20T15:06:53.813Z,-0.36
2022-11-20T15:09:20.219Z,-0.29
2022-11-20T15:12:01.284Z,-0.24
2022-11-20T15:14:28.670Z,-0.21
2022-11-20T15:16:55.422Z,-0.27
2022-11-20T15:19:23.038Z,-0.48
2022-11-20T15:21:50.185Z,-0.56
2022-11-20T15:24:16.731Z,-0.54
2022-11-20T15:26:43.609Z,-0.46
2022-11-20T15:29:14.884Z,-0.57
2022-11-20T15:31:44.310Z,-0.59
2022-11-20T15:34:14.290Z,-0.48
2022-11-20T15:36:40.990Z,-0.53
2022-11-20T15:39:12.572Z,-0.59
2022-11-20T15:41:39.469Z,-0.66
2022-11-20T15:44:06.290Z,-0.53
2022-11-20T15:46:41.311Z,-0.61
2022-11-20T15:49:12.282Z,-0.67
2022-11-20T15:51:39.706Z,-0.64
2022-11-20T15:54:17.633Z,-0.59
2022-11-20T15:56:44.249Z,-0.72
2022-11-20T15:59:10.710Z,-0.74
2022-11-20T16:01:37.335Z,-0.67
2022-11-20T16:04:03.860Z,-0.65
2022-11-20T16:06:30.399Z,-0.70
2022-11-20T16:08:56.789Z,-0.76
2022-11-20T16:11:23.250Z,-0.66
2022-11-20T16:14:08.315Z,-0.72
2022-11-20T16:16:36.645Z,-0.75
2022-11-20T16:19:03.461Z,-0.78
2022-11-20T16:21:33.181Z,-0.66
2022-11-20T16:24:00.141Z,-0.78
2022-11-20T16:26:26.751Z,-0.81
2022-11-20T16:28:54.488Z,-0.74
2022-11-20T16:31:21.229Z,-0.67
2022-11-20T16:33:51.871Z,-0.77
2022-11-20T16:36:18.755Z,-0.79
2022-11-20T16:38:45.540Z,-0.71
2022-11-20T16:41:15.101Z,-0.68
2022-11-20T16:43:45.240Z,-0.81
2022-11-20T16:46:11.831Z,-0.77
2022-11-20T16:48:38.416Z,-0.64
2022-11-20T16:51:08.510Z,-0.67
2022-11-20T16:53:35.125Z,-0.71
2022-11-20T16:56:17.238Z,-0.74
2022-11-20T16:58:44.279Z,-0.61
2022-11-20T17:01:12.649Z,-0.72
2022-11-20T17:03:42.866Z,-0.76
2022-11-20T17:06:12.302Z,-0.69
2022-11-20T17:08:38.845Z,-0.67
2022-11-20T17:11:06.395Z,-0.74
2022-11-20T17:13:37.162Z,-0.77
2022-11-20T17:16:07.507Z,-0.68
2022-11-20T17:18:34.314Z,-0.65
2022-11-20T17:21:04.606Z,-0.75
2022-11-20T17:23:40.119Z,-0.74
2022-11-20T17:26:10.886Z,-0.62
2022-11-20T17:28:38.099Z,-0.70
2022-11-20T17:31:10.147Z,-0.78
2022-11-20T17:33:37.758Z,-0.77
2022-11-20T17:36:04.958Z,-0.63
2022-11-20T17:38:31.422Z,-0.70
2022-11-20T17:41:08.382Z,-0.71
2022-11-20T17:43:38.094Z,-0.72
2022-11-20T17:46:07.612Z,-0.67
2022-11-20T17:48:34.601Z,-0.76
2022-11-20T17:51:02.097Z,-0.80
2022-11-20T17:53:28.900Z,-0.76
2022-11-20T17:56:14.831Z,-0.75
2022-11-20T17:58:41.295Z,-0.84
2022-11-20T18:01:08.703Z,-0.84
2022-11-20T18:03:35.193Z,-0.75
2022-11-20T18:06:21.149Z,-0.80
2022-11-20T18:08:48.075Z,-0.85
2022-11-20T18:11:17.609Z,-0.85
2022-11-20T18:14:03.713Z,-0.75
2022-11-20T18:16:31.746Z,-0.80
2022-11-20T18:18:58.931Z,-0.83
2022-11-20T18:21:28.992Z,-0.78
2022-11-20T18:23:55.783Z,-0.75
2022-11-20T18:26:22.730Z,-0.82
2022-11-20T18:28:51.324Z,-0.80
2022-11-20T18:31:17.771Z,-0.72
2022-11-20T18:33:44.257Z,-0.69
2022-11-20T18:36:10.744Z,-0.80
2022-11-20T18:38:40.732Z,-0.83
2022-11-20T18:41:08.337Z,-0.70
2022-11-20T18:43:53.350Z,-0.73
2022-11-20T18:46:22.009Z,-0.79
2022-11-20T18:48:48.491Z,-0.76
2022-11-20T18:51:16.434Z,-0.64
2022-11-20T18:53:47.146Z,-0.67
2022-11-20T18:56:14.246Z,-0.69
2022-11-20T18:58:41.442Z,-0.70
2022-11-20T19:01:08.387Z,-0.57
2022-11-20T19:03:35.023Z,-0.62
2022-11-20T19:06:01.627Z,-0.65
2022-11-20T19:08:28.397Z,-0.64
2022-11-20T19:10:54.838Z,-0.55
2022-11-20T19:13:21.463Z,-0.53
2022-11-20T19:15:48.006Z,-0.61
2022-11-20T19:18:14.435Z,-0.59
2022-11-20T19:20:40.943Z,-0.52
2022-11-20T19:23:07.461Z,-0.48
2022-11-20T19:25:37.884Z,-0.48
2022-11-20T19:28:04.987Z,-0.47
2022-11-20T19:30:33.605Z,-0.45
2022-11-20T19:33:00.045Z,-0.37
2022-11-20T19:35:26.517Z,-0.40
2022-11-20T19:37:53.122Z,-0.39
2022-11-20T19:40:19.595Z,-0.41
2022-11-20T19:42:46.062Z,-0.33
2022-11-20T19:45:14.515Z,-0.30
2022-11-20T19:50:27.324Z,-0.26
2022-11-20T19:52:58.550Z,-0.22
2022-11-20T19:55:25.248Z,-0.17
2022-11-20T19:57:53.481Z,-0.21
2022-11-20T20:00:25.605Z,-0.24
2022-11-20T20:02:54.817Z,-0.25
2022-11-20T20:05:21.267Z,-0.16
2022-11-20T20:07:48.223Z,-0.10
2022-11-20T20:10:14.835Z,-0.22
2022-11-20T20:12:41.321Z,-0.33
2022-11-20T20:15:07.966Z,-0.28
2022-11-20T20:17:34.407Z,-0.21
2022-11-20T20:20:00.979Z,-0.29
2022-11-20T20:22:29.413Z,-0.33
2022-11-20T20:24:55.804Z,-0.28
2022-11-20T20:27:22.239Z,-0.24
2022-11-20T20:29:49.984Z,-0.28
2022-11-20T20:32:16.492Z,-0.32
2022-11-20T20:34:42.881Z,-0.32
2022-11-20T20:37:09.275Z,-0.21
2022-11-20T20:39:35.806Z,-0.30
2022-11-20T20:42:02.277Z,-0.42
2022-11-20T20:44:49.246Z,-0.46
2022-11-20T20:47:17.863Z,-0.28
2022-11-20T20:49:44.366Z,-0.33
2022-11-20T20:52:10.802Z,-0.43
2022-11-20T20:54:37.451Z,-0.44
2022-11-20T20:57:03.962Z,-0.32
2022-11-20T20:59:30.437Z,-0.35
2022-11-20T21:01:56.913Z,-0.42
2022-11-20T21:04:23.370Z,-0.45
2022-11-20T21:06:49.778Z,-0.38
2022-11-20T21:09:16.877Z,-0.40
2022-11-20T21:11:43.338Z,-0.47
2022-11-20T21:14:09.769Z,-0.52
2022-11-20T21:16:41.282Z,-0.46
2022-11-20T21:19:08.025Z,-0.43
2022-11-20T21:21:55.188Z,-0.51
2022-11-20T21:24:21.920Z,-0.59
2022-11-20T21:26:49.777Z,-0.45
2022-11-20T21:29:17.771Z,-0.49
2022-11-20T21:31:44.420Z,-0.61
2022-11-20T21:34:14.745Z,-0.63
2022-11-20T21:36:41.820Z,-0.53
2022-11-20T21:39:09.442Z,-0.57
2022-11-20T21:41:36.181Z,-0.61
2022-11-20T21:46:50.509Z,-0.57
2022-11-20T21:49:18.373Z,-0.62
2022-11-20T21:51:44.808Z,-0.67
2022-11-20T21:54:11.759Z,-0.68
2022-11-20T21:56:40.245Z,-0.57
2022-11-20T21:59:06.715Z,-0.63
2022-11-20T22:01:33.267Z,-0.69
2022-11-20T22:04:01.373Z,-0.79
2022-11-20T22:06:34.649Z,-0.65
2022-11-20T22:09:01.415Z,-0.64
2022-11-20T22:11:27.858Z,-0.78
2022-11-20T22:14:13.450Z,-0.77
2022-11-20T22:16:40.012Z,-0.66
2022-11-20T22:19:07.021Z,-0.73
2022-11-20T22:21:36.508Z,-0.81
2022-11-20T22:24:02.966Z,-0.82
2022-11-20T22:26:31.261Z,-0.73
2022-11-20T22:28:59.845Z,-0.75
2022-11-20T22:31:29.365Z,-0.85
2022-11-20T22:33:56.553Z,-0.86
2022-11-20T22:36:30.605Z,-0.76
2022-11-20T22:38:57.498Z,-0.75
2022-11-20T22:41:28.308Z,-0.83
2022-11-20T22:43:56.823Z,-0.87
2022-11-20T22:46:23.637Z,-0.79
2022-11-20T22:48:54.274Z,-0.77
2022-11-20T22:51:22.191Z,-0.88
2022-11-20T22:53:49.033Z,-0.94
2022-11-20T22:56:16.325Z,-0.91
2022-11-20T22:58:44.142Z,-0.82
2022-11-20T23:01:11.658Z,-0.95
2022-11-20T23:03:38.915Z,-0.99
2022-11-20T23:06:05.771Z,-0.93
2022-11-20T23:08:32.851Z,-0.85
2022-11-20T23:11:00.044Z,-0.91
2022-11-20T23:13:27.278Z,-1.02
2022-11-20T23:15:53.825Z,-1.06
2022-11-20T23:18:20.347Z,-0.94
2022-11-20T23:20:46.864Z,-0.98
2022-11-20T23:23:13.294Z,-1.03
2022-11-20T23:25:39.757Z,-1.09
2022-11-20T23:28:06.205Z,-1.00
2022-11-20T23:30:33.274Z,-1.01
2022-11-20T23:32:59.719Z,-1.08
2022-11-20T23:35:26.162Z,-1.07
2022-11-20T23:37:52.775Z,-0.98
2022-11-20T23:40:21.430Z,-1.02
2022-11-20T23:43:06.589Z,-1.05
2022-11-20T23:45:37.723Z,-1.05
2022-11-20T23:48:04.340Z,-1.00
2022-11-20T23:50:30.862Z,-1.00
2022-11-20T23:52:57.299Z,-1.07
2022-11-20T23:55:23.762Z,-1.08
2022-11-20T23:57:50.430Z,-0.96
